Wolf 59 — CGBP — position and weather

sailwx.info

Track history (hours):
 
Tides and Currents Weather Stations Pressure Air Temp Water Temp Dewpoint Dewpoint Depression Visibility Wind Speed Wind Dir Waves Ship Positions

Wolf 59

Last reported at 2014-Oct-21 06:22 UTC. Time now 2014-Oct-21 07:19 UTC.
Position N 48°30' W 123°33'.

Length 33 m; draft 2.6 m.

Type: Military. MMSI: 316011515.

Date/timePositionNaut miles runAvg speedWind from/ knotsBaromVisibWave heightAir tempDewpointWater temp
2014-Oct-21 06:22N 48°30' W 123°33'0 0.0
2014-Oct-21 05:31N 48°30' W 123°33'0 0.0
2014-Oct-21 04:31N 48°30' W 123°33'0 0.0
2014-Oct-21 03:25N 48°30' W 123°33'0 0.0
2014-Oct-21 02:28N 48°30' W 123°33'0 0.0
2014-Oct-21 01:31N 48°30' W 123°33'0 0.0
2014-Oct-21 00:16N 48°30' W 123°33'0 0.0
2014-Oct-20 23:27N 48°30' W 123°33'3 2.5
2014-Oct-20 22:15N 48°33' W 123°32'7 9.0
2014-Oct-20 21:31N 48°39' W 123°28'4 4.5
2014-Oct-20 20:33N 48°43' W 123°32'5 5.0
2014-Oct-20 19:33N 48°48' W 123°33'7 6.7
2014-Oct-20 18:33N 48°54' W 123°36'3 2.8
2014-Oct-20 17:33N 48°55' W 123°32'7 6.7
2014-Oct-20 16:33N 48°50' W 123°26'2 2.2
2014-Oct-20 15:30N 48°51' W 123°29'0 0.0
2014-Oct-20 01:23N 48°51' W 123°30'0 0.0
2014-Oct-20 00:30N 48°51' W 123°30'1 0.6
2014-Oct-19 23:32N 48°51' W 123°29'8 8.2
2014-Oct-19 22:32N 48°45' W 123°21'9 8.7
2014-Oct-19 21:33N 48°37' W 123°20'9 8.8
2014-Oct-19 20:34N 48°29' W 123°12'9 9.2
2014-Oct-19 19:34N 48°22' W 123°20'5 5.5
2014-Oct-19 18:34N 48°25' W 123°27'1 0.0
2014-Oct-18 20:27N 48°26' W 123°26'0 0.0
2014-Oct-17 22:07N 48°26' W 123°26'0 0.0
2014-Oct-17 21:23N 48°26' W 123°26'0 0.0
2014-Oct-17 20:25N 48°26' W 123°26'0 0.0
2014-Oct-17 19:30N 48°26' W 123°26'0 0.0
2014-Oct-16 22:27N 48°26' W 123°26'1 0.8
2014-Oct-16 21:33N 48°26' W 123°27'6 5.7
2014-Oct-16 20:33N 48°21' W 123°30'1 0.8
2014-Oct-16 19:21N 48°21' W 123°32'0 0.4
2014-Oct-16 18:33N 48°21' W 123°31'2 2.3
2014-Oct-16 17:33N 48°22' W 123°28'5 0.1
2014-Oct-14 19:33N 48°26' W 123°26'  
Track history (hours):
 
Tides and Currents Weather Stations Pressure Air Temp Water Temp Dewpoint Dewpoint Depression Visibility Wind Speed Wind Dir Waves Ship Positions

Wolf 59

Last reported at 2014-Oct-21 06:22 UTC. Time now 2014-Oct-21 07:19 UTC.
Position N 48°30' W 123°33'.

Length 33 m; draft 2.6 m.

Type: Military. MMSI: 316011515.

Date/timePositionNaut miles runAvg speedWind from/ knotsBaromVisibWave heightAir tempDewpointWater temp
2014-Oct-21 06:22N 48°30' W 123°33'0 0.0
2014-Oct-21 05:31N 48°30' W 123°33'0 0.0
2014-Oct-21 04:31N 48°30' W 123°33'0 0.0
2014-Oct-21 03:25N 48°30' W 123°33'0 0.0
2014-Oct-21 02:28N 48°30' W 123°33'0 0.0
2014-Oct-21 01:31N 48°30' W 123°33'0 0.0
2014-Oct-21 00:16N 48°30' W 123°33'0 0.0
2014-Oct-20 23:27N 48°30' W 123°33'3 2.5
2014-Oct-20 22:15N 48°33' W 123°32'7 9.0
2014-Oct-20 21:31N 48°39' W 123°28'4 4.5
2014-Oct-20 20:33N 48°43' W 123°32'5 5.0
2014-Oct-20 19:33N 48°48' W 123°33'7 6.7
2014-Oct-20 18:33N 48°54' W 123°36'3 2.8
2014-Oct-20 17:33N 48°55' W 123°32'7 6.7
2014-Oct-20 16:33N 48°50' W 123°26'2 2.2
2014-Oct-20 15:30N 48°51' W 123°29'0 0.0
2014-Oct-20 01:23N 48°51' W 123°30'0 0.0
2014-Oct-20 00:30N 48°51' W 123°30'1 0.6
2014-Oct-19 23:32N 48°51' W 123°29'8 8.2
2014-Oct-19 22:32N 48°45' W 123°21'9 8.7
2014-Oct-19 21:33N 48°37' W 123°20'9 8.8
2014-Oct-19 20:34N 48°29' W 123°12'9 9.2
2014-Oct-19 19:34N 48°22' W 123°20'5 5.5
2014-Oct-19 18:34N 48°25' W 123°27'1 0.0
2014-Oct-18 20:27N 48°26' W 123°26'0 0.0
2014-Oct-17 22:07N 48°26' W 123°26'0 0.0
2014-Oct-17 21:23N 48°26' W 123°26'0 0.0
2014-Oct-17 20:25N 48°26' W 123°26'0 0.0
2014-Oct-17 19:30N 48°26' W 123°26'0 0.0
2014-Oct-16 22:27N 48°26' W 123°26'1 0.8
2014-Oct-16 21:33N 48°26' W 123°27'6 5.7
2014-Oct-16 20:33N 48°21' W 123°30'1 0.8
2014-Oct-16 19:21N 48°21' W 123°32'0 0.4
2014-Oct-16 18:33N 48°21' W 123°31'2 2.3
2014-Oct-16 17:33N 48°22' W 123°28'5 0.1
2014-Oct-14 19:33N 48°26' W 123°26'  

Dump ship's entire track history